sensor_id;sensor_type;location;lat;lon;timestamp;P1;durP1;ratioP1;P2;durP2;ratioP2
52468;SDS011;38381;53.688;10.776;2022-11-18T00:00:23;16.73;;;13.40;;
52468;SDS011;38381;53.688;10.776;2022-11-18T00:05:24;16.95;;;12.48;;
52468;SDS011;38381;53.688;10.776;2022-11-18T00:10:24;16.50;;;13.18;;
52468;SDS011;38381;53.688;10.776;2022-11-18T00:15:25;17.95;;;13.95;;
52468;SDS011;38381;53.688;10.776;2022-11-18T00:20:25;16.95;;;13.75;;
52468;SDS011;38381;53.688;10.776;2022-11-18T00:25:26;16.42;;;13.60;;
52468;SDS011;38381;53.688;10.776;2022-11-18T00:30:26;14.50;;;12.82;;
52468;SDS011;38381;53.688;10.776;2022-11-18T00:35:27;15.50;;;12.65;;
52468;SDS011;38381;53.688;10.776;2022-11-18T00:40:27;15.20;;;12.00;;
52468;SDS011;38381;53.688;10.776;2022-11-18T00:45:27;13.00;;;11.40;;
52468;SDS011;38381;53.688;10.776;2022-11-18T00:50:28;13.57;;;12.02;;
52468;SDS011;38381;53.688;10.776;2022-11-18T00:55:28;14.95;;;11.25;;
52468;SDS011;38381;53.688;10.776;2022-11-18T01:00:29;13.80;;;10.68;;
52468;SDS011;38381;53.688;10.776;2022-11-18T01:05:29;14.20;;;11.90;;
52468;SDS011;38381;53.688;10.776;2022-11-18T01:10:29;14.43;;;11.98;;
52468;SDS011;38381;53.688;10.776;2022-11-18T01:15:30;13.15;;;10.52;;
52468;SDS011;38381;53.688;10.776;2022-11-18T01:20:38;12.00;;;10.57;;
52468;SDS011;38381;53.688;10.776;2022-11-18T01:25:39;12.80;;;10.85;;
52468;SDS011;38381;53.688;10.776;2022-11-18T01:35:42;11.43;;;10.30;;
52468;SDS011;38381;53.688;10.776;2022-11-18T01:40:43;13.05;;;10.02;;
52468;SDS011;38381;53.688;10.776;2022-11-18T01:45:44;13.18;;;10.55;;
52468;SDS011;38381;53.688;10.776;2022-11-18T01:50:53;13.82;;;11.82;;
52468;SDS011;38381;53.688;10.776;2022-11-18T01:55:59;12.32;;;10.60;;
52468;SDS011;38381;53.688;10.776;2022-11-18T02:01:03;15.23;;;10.68;;
52468;SDS011;38381;53.688;10.776;2022-11-18T02:06:05;13.25;;;10.75;;
52468;SDS011;38381;53.688;10.776;2022-11-18T02:11:09;13.30;;;10.48;;
52468;SDS011;38381;53.688;10.776;2022-11-18T02:32:28;15.85;;;12.38;;
52468;SDS011;38381;53.688;10.776;2022-11-18T02:37:38;15.75;;;11.45;;
52468;SDS011;38381;53.688;10.776;2022-11-18T02:42:53;18.05;;;13.23;;
52468;SDS011;38381;53.688;10.776;2022-11-18T02:48:04;17.33;;;13.45;;
52468;SDS011;38381;53.688;10.776;2022-11-18T02:53:08;16.75;;;13.48;;
52468;SDS011;38381;53.688;10.776;2022-11-18T02:58:13;18.27;;;13.70;;
52468;SDS011;38381;53.688;10.776;2022-11-18T03:03:33;18.00;;;13.90;;
52468;SDS011;38381;53.688;10.776;2022-11-18T03:08:40;17.25;;;13.55;;
52468;SDS011;38381;53.688;10.776;2022-11-18T03:19:19;17.08;;;12.60;;
52468;SDS011;38381;53.688;10.776;2022-11-18T03:24:28;17.25;;;14.00;;
52468;SDS011;38381;53.688;10.776;2022-11-18T03:29:33;16.20;;;14.40;;
52468;SDS011;38381;53.688;10.776;2022-11-18T03:34:42;16.20;;;14.25;;
52468;SDS011;38381;53.688;10.776;2022-11-18T03:39:48;18.70;;;14.10;;
52468;SDS011;38381;53.688;10.776;2022-11-18T03:45:00;14.77;;;13.05;;
52468;SDS011;38381;53.688;10.776;2022-11-18T03:50:16;16.77;;;13.63;;
52468;SDS011;38381;53.688;10.776;2022-11-18T03:55:22;18.13;;;14.70;;
52468;SDS011;38381;53.688;10.776;2022-11-18T04:00:27;16.20;;;13.20;;
52468;SDS011;38381;53.688;10.776;2022-11-18T04:05:32;18.85;;;14.18;;
52468;SDS011;38381;53.688;10.776;2022-11-18T04:10:38;15.85;;;13.35;;
52468;SDS011;38381;53.688;10.776;2022-11-18T04:15:44;17.83;;;13.48;;
52468;SDS011;38381;53.688;10.776;2022-11-18T04:20:45;19.20;;;15.23;;
52468;SDS011;38381;53.688;10.776;2022-11-18T04:25:46;20.33;;;15.73;;
52468;SDS011;38381;53.688;10.776;2022-11-18T04:30:46;17.60;;;14.05;;
52468;SDS011;38381;53.688;10.776;2022-11-18T04:35:47;17.15;;;12.85;;
52468;SDS011;38381;53.688;10.776;2022-11-18T04:40:47;19.17;;;14.50;;
52468;SDS011;38381;53.688;10.776;2022-11-18T04:45:48;19.17;;;13.90;;
52468;SDS011;38381;53.688;10.776;2022-11-18T04:50:48;17.00;;;14.17;;
52468;SDS011;38381;53.688;10.776;2022-11-18T04:55:48;17.50;;;13.10;;
52468;SDS011;38381;53.688;10.776;2022-11-18T05:00:49;17.27;;;13.73;;
52468;SDS011;38381;53.688;10.776;2022-11-18T05:05:49;18.30;;;12.50;;
52468;SDS011;38381;53.688;10.776;2022-11-18T05:10:50;18.98;;;14.70;;
52468;SDS011;38381;53.688;10.776;2022-11-18T05:15:50;19.05;;;14.57;;
52468;SDS011;38381;53.688;10.776;2022-11-18T05:20:51;17.35;;;14.13;;
52468;SDS011;38381;53.688;10.776;2022-11-18T05:25:51;17.02;;;14.00;;
52468;SDS011;38381;53.688;10.776;2022-11-18T05:30:51;18.13;;;13.88;;
52468;SDS011;38381;53.688;10.776;2022-11-18T05:35:52;19.05;;;15.27;;
52468;SDS011;38381;53.688;10.776;2022-11-18T05:40:52;19.10;;;13.60;;
52468;SDS011;38381;53.688;10.776;2022-11-18T05:45:53;20.38;;;14.27;;
52468;SDS011;38381;53.688;10.776;2022-11-18T05:50:54;18.05;;;14.63;;
52468;SDS011;38381;53.688;10.776;2022-11-18T05:56:03;17.15;;;13.50;;
52468;SDS011;38381;53.688;10.776;2022-11-18T06:01:11;18.00;;;13.70;;
52468;SDS011;38381;53.688;10.776;2022-11-18T06:06:16;18.77;;;15.20;;
52468;SDS011;38381;53.688;10.776;2022-11-18T06:11:20;23.48;;;17.15;;
52468;SDS011;38381;53.688;10.776;2022-11-18T06:16:23;21.70;;;16.08;;
52468;SDS011;38381;53.688;10.776;2022-11-18T06:21:28;18.05;;;14.65;;
52468;SDS011;38381;53.688;10.776;2022-11-18T06:26:29;23.90;;;17.48;;
52468;SDS011;38381;53.688;10.776;2022-11-18T06:31:30;25.20;;;18.15;;
52468;SDS011;38381;53.688;10.776;2022-11-18T06:36:30;23.98;;;16.98;;
52468;SDS011;38381;53.688;10.776;2022-11-18T06:41:31;25.00;;;18.70;;
52468;SDS011;38381;53.688;10.776;2022-11-18T06:46:31;26.55;;;18.25;;
52468;SDS011;38381;53.688;10.776;2022-11-18T06:51:51;23.85;;;15.57;;
52468;SDS011;38381;53.688;10.776;2022-11-18T06:56:51;22.20;;;15.52;;
52468;SDS011;38381;53.688;10.776;2022-11-18T07:01:52;17.67;;;13.60;;
52468;SDS011;38381;53.688;10.776;2022-11-18T07:06:52;17.42;;;12.23;;
52468;SDS011;38381;53.688;10.776;2022-11-18T07:11:53;13.93;;;11.73;;
52468;SDS011;38381;53.688;10.776;2022-11-18T07:16:53;17.08;;;11.95;;
52468;SDS011;38381;53.688;10.776;2022-11-18T07:21:54;17.05;;;12.15;;
52468;SDS011;38381;53.688;10.776;2022-11-18T07:26:54;13.35;;;11.95;;
52468;SDS011;38381;53.688;10.776;2022-11-18T07:31:54;14.23;;;11.60;;
52468;SDS011;38381;53.688;10.776;2022-11-18T07:36:55;16.77;;;11.15;;
52468;SDS011;38381;53.688;10.776;2022-11-18T07:41:55;14.93;;;11.43;;
52468;SDS011;38381;53.688;10.776;2022-11-18T07:46:56;12.27;;;10.98;;
52468;SDS011;38381;53.688;10.776;2022-11-18T07:51:56;11.75;;;10.15;;
52468;SDS011;38381;53.688;10.776;2022-11-18T07:56:57;13.27;;;9.48;;
52468;SDS011;38381;53.688;10.776;2022-11-18T08:01:57;13.10;;;10.93;;
52468;SDS011;38381;53.688;10.776;2022-11-18T08:06:59;10.50;;;8.98;;
52468;SDS011;38381;53.688;10.776;2022-11-18T08:11:59;10.93;;;8.73;;
52468;SDS011;38381;53.688;10.776;2022-11-18T08:16:59;11.57;;;9.57;;
52468;SDS011;38381;53.688;10.776;2022-11-18T08:22:00;9.43;;;8.15;;
52468;SDS011;38381;53.688;10.776;2022-11-18T08:27:01;11.93;;;9.63;;
52468;SDS011;38381;53.688;10.776;2022-11-18T08:32:01;10.32;;;8.93;;
52468;SDS011;38381;53.688;10.776;2022-11-18T08:37:01;13.93;;;8.55;;
52468;SDS011;38381;53.688;10.776;2022-11-18T08:42:02;8.20;;;7.22;;
52468;SDS011;38381;53.688;10.776;2022-11-18T08:47:02;9.88;;;8.43;;
52468;SDS011;38381;53.688;10.776;2022-11-18T08:52:03;10.45;;;8.88;;
52468;SDS011;38381;53.688;10.776;2022-11-18T08:57:03;7.75;;;7.00;;
52468;SDS011;38381;53.688;10.776;2022-11-18T09:02:04;9.25;;;8.10;;
52468;SDS011;38381;53.688;10.776;2022-11-18T09:07:05;9.48;;;7.65;;
52468;SDS011;38381;53.688;10.776;2022-11-18T09:12:05;11.63;;;9.68;;
52468;SDS011;38381;53.688;10.776;2022-11-18T09:17:06;9.23;;;7.93;;
52468;SDS011;38381;53.688;10.776;2022-11-18T09:22:07;11.35;;;9.57;;
52468;SDS011;38381;53.688;10.776;2022-11-18T09:27:07;10.07;;;8.65;;
52468;SDS011;38381;53.688;10.776;2022-11-18T09:32:08;11.50;;;8.70;;
52468;SDS011;38381;53.688;10.776;2022-11-18T09:37:08;9.07;;;8.10;;
52468;SDS011;38381;53.688;10.776;2022-11-18T09:47:36;9.38;;;8.10;;
52468;SDS011;38381;53.688;10.776;2022-11-18T09:52:38;9.27;;;7.85;;
52468;SDS011;38381;53.688;10.776;2022-11-18T10:18:39;7.93;;;6.45;;
52468;SDS011;38381;53.688;10.776;2022-11-18T10:23:54;5.97;;;5.47;;
52468;SDS011;38381;53.688;10.776;2022-11-18T10:29:02;7.38;;;5.57;;
52468;SDS011;38381;53.688;10.776;2022-11-18T10:34:02;6.57;;;5.30;;
52468;SDS011;38381;53.688;10.776;2022-11-18T10:39:10;5.95;;;4.72;;
52468;SDS011;38381;53.688;10.776;2022-11-18T10:44:57;5.60;;;4.93;;
52468;SDS011;38381;53.688;10.776;2022-11-18T10:49:40;7.05;;;5.00;;
52468;SDS011;38381;53.688;10.776;2022-11-18T10:54:41;5.68;;;5.00;;
52468;SDS011;38381;53.688;10.776;2022-11-18T10:59:46;5.30;;;4.20;;
52468;SDS011;38381;53.688;10.776;2022-11-18T11:04:51;5.20;;;4.45;;
52468;SDS011;38381;53.688;10.776;2022-11-18T11:15:16;5.45;;;4.45;;
52468;SDS011;38381;53.688;10.776;2022-11-18T11:20:23;4.15;;;3.60;;
52468;SDS011;38381;53.688;10.776;2022-11-18T11:25:32;5.20;;;4.28;;
52468;SDS011;38381;53.688;10.776;2022-11-18T11:30:48;6.50;;;4.35;;
52468;SDS011;38381;53.688;10.776;2022-11-18T11:41:23;6.45;;;3.83;;
52468;SDS011;38381;53.688;10.776;2022-11-18T11:52:10;5.82;;;3.20;;
52468;SDS011;38381;53.688;10.776;2022-11-18T11:57:32;6.85;;;3.58;;
52468;SDS011;38381;53.688;10.776;2022-11-18T12:13:39;4.22;;;3.30;;
52468;SDS011;38381;53.688;10.776;2022-11-18T12:34:42;3.15;;;2.85;;
52468;SDS011;38381;53.688;10.776;2022-11-18T12:44:45;3.03;;;2.50;;
52468;SDS011;38381;53.688;10.776;2022-11-18T12:54:47;3.33;;;2.47;;
52468;SDS011;38381;53.688;10.776;2022-11-18T12:59:48;3.47;;;2.70;;
52468;SDS011;38381;53.688;10.776;2022-11-18T13:05:09;3.92;;;2.80;;
52468;SDS011;38381;53.688;10.776;2022-11-18T13:10:22;2.83;;;2.35;;
52468;SDS011;38381;53.688;10.776;2022-11-18T13:15:26;3.22;;;2.33;;
52468;SDS011;38381;53.688;10.776;2022-11-18T13:20:56;4.68;;;2.42;;
52468;SDS011;38381;53.688;10.776;2022-11-18T13:26:01;4.20;;;3.30;;
52468;SDS011;38381;53.688;10.776;2022-11-18T13:31:11;2.95;;;2.10;;
52468;SDS011;38381;53.688;10.776;2022-11-18T13:36:21;2.80;;;2.00;;
52468;SDS011;38381;53.688;10.776;2022-11-18T13:41:24;2.95;;;2.35;;
52468;SDS011;38381;53.688;10.776;2022-11-18T13:46:31;6.28;;;2.20;;
52468;SDS011;38381;53.688;10.776;2022-11-18T13:51:33;5.75;;;2.50;;
52468;SDS011;38381;53.688;10.776;2022-11-18T13:56:34;3.08;;;2.70;;
52468;SDS011;38381;53.688;10.776;2022-11-18T14:01:35;2.72;;;1.92;;
52468;SDS011;38381;53.688;10.776;2022-11-18T14:06:39;3.03;;;2.35;;
52468;SDS011;38381;53.688;10.776;2022-11-18T14:11:42;4.88;;;2.53;;
52468;SDS011;38381;53.688;10.776;2022-11-18T14:16:44;3.22;;;2.45;;
52468;SDS011;38381;53.688;10.776;2022-11-18T14:21:44;4.67;;;4.07;;
52468;SDS011;38381;53.688;10.776;2022-11-18T14:26:45;5.25;;;3.42;;
52468;SDS011;38381;53.688;10.776;2022-11-18T14:32:02;5.25;;;2.05;;
52468;SDS011;38381;53.688;10.776;2022-11-18T14:37:13;3.88;;;2.45;;
52468;SDS011;38381;53.688;10.776;2022-11-18T14:42:14;4.13;;;3.00;;
52468;SDS011;38381;53.688;10.776;2022-11-18T14:52:25;4.53;;;3.13;;
52468;SDS011;38381;53.688;10.776;2022-11-18T14:57:25;3.88;;;3.15;;
52468;SDS011;38381;53.688;10.776;2022-11-18T15:02:25;2.83;;;2.58;;
52468;SDS011;38381;53.688;10.776;2022-11-18T15:07:26;3.33;;;2.83;;
52468;SDS011;38381;53.688;10.776;2022-11-18T15:12:26;3.72;;;3.08;;
52468;SDS011;38381;53.688;10.776;2022-11-18T15:17:27;4.88;;;3.78;;
52468;SDS011;38381;53.688;10.776;2022-11-18T15:22:28;5.28;;;3.65;;
52468;SDS011;38381;53.688;10.776;2022-11-18T15:27:29;5.63;;;4.20;;
52468;SDS011;38381;53.688;10.776;2022-11-18T15:32:29;4.78;;;4.25;;
52468;SDS011;38381;53.688;10.776;2022-11-18T15:37:30;6.25;;;4.43;;
52468;SDS011;38381;53.688;10.776;2022-11-18T15:42:30;6.20;;;4.30;;
52468;SDS011;38381;53.688;10.776;2022-11-18T15:47:31;7.13;;;6.30;;
52468;SDS011;38381;53.688;10.776;2022-11-18T15:52:31;5.75;;;5.25;;
52468;SDS011;38381;53.688;10.776;2022-11-18T15:57:31;6.38;;;5.65;;
52468;SDS011;38381;53.688;10.776;2022-11-18T16:02:32;14.45;;;11.18;;
52468;SDS011;38381;53.688;10.776;2022-11-18T16:07:32;4.68;;;4.28;;
52468;SDS011;38381;53.688;10.776;2022-11-18T16:12:33;4.28;;;3.72;;
52468;SDS011;38381;53.688;10.776;2022-11-18T16:17:45;4.75;;;4.05;;
52468;SDS011;38381;53.688;10.776;2022-11-18T16:22:46;6.63;;;4.38;;
52468;SDS011;38381;53.688;10.776;2022-11-18T16:27:46;5.22;;;4.72;;
52468;SDS011;38381;53.688;10.776;2022-11-18T16:32:50;5.72;;;5.05;;
52468;SDS011;38381;53.688;10.776;2022-11-18T16:37:50;6.45;;;5.50;;
52468;SDS011;38381;53.688;10.776;2022-11-18T16:42:51;5.93;;;4.80;;
52468;SDS011;38381;53.688;10.776;2022-11-18T16:47:52;6.50;;;4.88;;
52468;SDS011;38381;53.688;10.776;2022-11-18T16:52:52;6.20;;;5.35;;
52468;SDS011;38381;53.688;10.776;2022-11-18T16:57:53;6.72;;;5.43;;
52468;SDS011;38381;53.688;10.776;2022-11-18T17:02:53;6.85;;;6.15;;
52468;SDS011;38381;53.688;10.776;2022-11-18T17:07:54;8.75;;;7.85;;
52468;SDS011;38381;53.688;10.776;2022-11-18T17:12:54;8.63;;;7.80;;
52468;SDS011;38381;53.688;10.776;2022-11-18T17:17:54;8.63;;;7.82;;
52468;SDS011;38381;53.688;10.776;2022-11-18T17:22:55;7.45;;;6.50;;
52468;SDS011;38381;53.688;10.776;2022-11-18T17:27:55;14.77;;;9.90;;
52468;SDS011;38381;53.688;10.776;2022-11-18T17:32:56;10.00;;;8.95;;
52468;SDS011;38381;53.688;10.776;2022-11-18T17:37:56;12.13;;;9.80;;
52468;SDS011;38381;53.688;10.776;2022-11-18T17:42:57;14.10;;;11.55;;
52468;SDS011;38381;53.688;10.776;2022-11-18T17:47:57;19.98;;;13.57;;
52468;SDS011;38381;53.688;10.776;2022-11-18T17:52:58;16.50;;;12.67;;
52468;SDS011;38381;53.688;10.776;2022-11-18T17:57:58;19.85;;;13.93;;
52468;SDS011;38381;53.688;10.776;2022-11-18T18:02:59;13.63;;;11.30;;
52468;SDS011;38381;53.688;10.776;2022-11-18T18:13:03;10.38;;;9.35;;
52468;SDS011;38381;53.688;10.776;2022-11-18T18:18:22;11.73;;;10.52;;
52468;SDS011;38381;53.688;10.776;2022-11-18T18:23:22;10.18;;;9.18;;
52468;SDS011;38381;53.688;10.776;2022-11-18T18:28:23;10.10;;;7.93;;
52468;SDS011;38381;53.688;10.776;2022-11-18T18:33:23;9.63;;;8.45;;
52468;SDS011;38381;53.688;10.776;2022-11-18T18:38:24;9.77;;;8.82;;
52468;SDS011;38381;53.688;10.776;2022-11-18T18:43:24;13.52;;;10.02;;
52468;SDS011;38381;53.688;10.776;2022-11-18T18:48:25;10.57;;;8.77;;
52468;SDS011;38381;53.688;10.776;2022-11-18T18:53:25;8.95;;;7.75;;
52468;SDS011;38381;53.688;10.776;2022-11-18T18:58:25;10.05;;;7.47;;
52468;SDS011;38381;53.688;10.776;2022-11-18T19:03:26;8.38;;;7.57;;
52468;SDS011;38381;53.688;10.776;2022-11-18T19:08:26;6.90;;;6.25;;
52468;SDS011;38381;53.688;10.776;2022-11-18T19:13:27;6.38;;;5.78;;
52468;SDS011;38381;53.688;10.776;2022-11-18T19:18:27;6.57;;;5.85;;
52468;SDS011;38381;53.688;10.776;2022-11-18T19:23:28;6.60;;;5.82;;
52468;SDS011;38381;53.688;10.776;2022-11-18T19:28:28;6.65;;;5.70;;
52468;SDS011;38381;53.688;10.776;2022-11-18T19:33:29;5.65;;;4.80;;
52468;SDS011;38381;53.688;10.776;2022-11-18T19:38:29;5.78;;;5.25;;
52468;SDS011;38381;53.688;10.776;2022-11-18T19:43:30;6.07;;;5.43;;
52468;SDS011;38381;53.688;10.776;2022-11-18T19:48:31;6.53;;;5.93;;
52468;SDS011;38381;53.688;10.776;2022-11-18T19:53:32;5.63;;;5.10;;
52468;SDS011;38381;53.688;10.776;2022-11-18T20:03:36;6.55;;;5.43;;
52468;SDS011;38381;53.688;10.776;2022-11-18T20:08:37;9.85;;;8.82;;
52468;SDS011;38381;53.688;10.776;2022-11-18T20:13:39;14.10;;;9.60;;
52468;SDS011;38381;53.688;10.776;2022-11-18T20:18:41;14.35;;;11.35;;
52468;SDS011;38381;53.688;10.776;2022-11-18T20:23:42;12.60;;;10.02;;
52468;SDS011;38381;53.688;10.776;2022-11-18T20:28:43;14.82;;;9.80;;
52468;SDS011;38381;53.688;10.776;2022-11-18T20:33:46;13.52;;;9.65;;
52468;SDS011;38381;53.688;10.776;2022-11-18T20:38:49;9.90;;;8.90;;
52468;SDS011;38381;53.688;10.776;2022-11-18T20:43:54;11.63;;;9.82;;
52468;SDS011;38381;53.688;10.776;2022-11-18T20:48:58;11.50;;;9.40;;
52468;SDS011;38381;53.688;10.776;2022-11-18T20:53:58;11.30;;;10.05;;
52468;SDS011;38381;53.688;10.776;2022-11-18T20:58:59;12.13;;;10.45;;
52468;SDS011;38381;53.688;10.776;2022-11-18T21:04:00;10.63;;;8.43;;
52468;SDS011;38381;53.688;10.776;2022-11-18T21:09:05;11.83;;;9.57;;
52468;SDS011;38381;53.688;10.776;2022-11-18T21:14:08;9.90;;;8.60;;
52468;SDS011;38381;53.688;10.776;2022-11-18T21:19:20;11.13;;;9.18;;
52468;SDS011;38381;53.688;10.776;2022-11-18T21:24:28;11.43;;;8.48;;
52468;SDS011;38381;53.688;10.776;2022-11-18T21:29:33;9.88;;;7.80;;
52468;SDS011;38381;53.688;10.776;2022-11-18T21:34:33;10.40;;;8.32;;
52468;SDS011;38381;53.688;10.776;2022-11-18T21:39:34;8.85;;;7.85;;
52468;SDS011;38381;53.688;10.776;2022-11-18T21:44:34;12.02;;;9.00;;
52468;SDS011;38381;53.688;10.776;2022-11-18T21:49:35;10.27;;;9.20;;
52468;SDS011;38381;53.688;10.776;2022-11-18T21:54:35;11.90;;;9.25;;
52468;SDS011;38381;53.688;10.776;2022-11-18T21:59:36;12.85;;;9.20;;
52468;SDS011;38381;53.688;10.776;2022-11-18T22:04:36;11.77;;;9.25;;
52468;SDS011;38381;53.688;10.776;2022-11-18T22:09:52;11.55;;;10.45;;
52468;SDS011;38381;53.688;10.776;2022-11-18T22:14:54;9.45;;;8.25;;
52468;SDS011;38381;53.688;10.776;2022-11-18T22:19:54;10.00;;;8.93;;
52468;SDS011;38381;53.688;10.776;2022-11-18T22:24:55;10.10;;;9.20;;
52468;SDS011;38381;53.688;10.776;2022-11-18T22:29:55;11.23;;;8.73;;
52468;SDS011;38381;53.688;10.776;2022-11-18T22:34:56;10.98;;;8.77;;
52468;SDS011;38381;53.688;10.776;2022-11-18T22:39:56;11.43;;;10.13;;
52468;SDS011;38381;53.688;10.776;2022-11-18T22:44:56;11.55;;;10.45;;
52468;SDS011;38381;53.688;10.776;2022-11-18T22:49:57;9.00;;;8.02;;
52468;SDS011;38381;53.688;10.776;2022-11-18T22:54:57;10.57;;;9.68;;
52468;SDS011;38381;53.688;10.776;2022-11-18T22:59:58;8.95;;;8.05;;
52468;SDS011;38381;53.688;10.776;2022-11-18T23:04:58;10.80;;;9.50;;
52468;SDS011;38381;53.688;10.776;2022-11-18T23:09:59;8.98;;;8.18;;
52468;SDS011;38381;53.688;10.776;2022-11-18T23:14:59;10.60;;;8.75;;
52468;SDS011;38381;53.688;10.776;2022-11-18T23:20:00;7.90;;;7.03;;
52468;SDS011;38381;53.688;10.776;2022-11-18T23:25:00;8.88;;;8.00;;
52468;SDS011;38381;53.688;10.776;2022-11-18T23:30:00;8.43;;;7.57;;
52468;SDS011;38381;53.688;10.776;2022-11-18T23:35:01;10.57;;;7.82;;
52468;SDS011;38381;53.688;10.776;2022-11-18T23:40:01;7.47;;;6.75;;
52468;SDS011;38381;53.688;10.776;2022-11-18T23:45:02;10.90;;;7.57;;
52468;SDS011;38381;53.688;10.776;2022-11-18T23:50:03;7.05;;;6.30;;
52468;SDS011;38381;53.688;10.776;2022-11-18T23:55:03;8.07;;;7.30;;
